Time;durP1;ratioP1;P1;durP2;ratioP2;P2;SDS_P1;SDS_P2;PMS_P1;PMS_P2;Temp;Humidity;BMP_temperature;BMP_pressure;BME280_temperature;BME280_humidity;BME280_pressure;Samples;Min_cycle;Max_cycle;Signal;HPM_P1;HPM_P2
2021/11/03 00:00:58;;;;;;;;;13.00;13.00;;;;;-147.17;100.00;49765.31;5064061;28;51244;-61
2021/11/03 00:03:26;;;;;;;;;17.75;13.50;;;;;-147.17;100.00;49771.22;5071618;27;50975;-61
2021/11/03 00:05:51;;;;;;;;;15.00;14.75;;;;;-147.17;100.00;49767.28;5066496;28;51806;-62
2021/11/03 00:08:28;;;;;;;;;17.00;17.00;;;;;-147.17;100.00;49773.19;5060645;27;51118;-62
2021/11/03 00:10:55;;;;;;;;;11.25;10.25;;;;;-147.17;100.00;49737.75;5063234;27;51987;-62
2021/11/03 00:13:23;;;;;;;;;19.50;19.25;;;;;-147.17;100.00;49749.56;5065298;28;51081;-62
2021/11/03 00:15:51;;;;;;;;;14.25;13.75;;;;;-147.17;100.00;49743.66;5066404;28;51034;-61
2021/11/03 00:18:16;;;;;;;;;13.50;13.25;;;;;-147.17;100.00;49735.78;5064381;28;51356;-61
2021/11/03 00:20:42;;;;;;;;;15.25;15.25;;;;;-147.17;100.00;49749.56;5061240;28;52225;-60
2021/11/03 00:23:08;;;;;;;;;12.00;11.75;;;;;-147.17;100.00;49749.56;5064005;28;51085;-60
2021/11/03 00:25:40;;;;;;;;;13.50;13.00;;;;;-147.17;100.00;49781.06;5059321;28;50953;-62
2021/11/03 00:28:07;;;;;;;;;11.00;10.25;;;;;-147.17;100.00;49757.44;5062765;28;51171;-61
2021/11/03 00:30:33;;;;;;;;;11.00;11.00;;;;;-147.17;100.00;49773.19;5068085;28;53707;-60
2021/11/03 00:33:00;;;;;;;;;14.00;13.00;;;;;-147.17;100.00;49784.97;5046201;28;50980;-61
2021/11/03 00:35:25;;;;;;;;;13.00;12.00;;;;;-147.17;100.00;49775.16;5065547;28;51167;-61
2021/11/03 00:37:51;;;;;;;;;13.00;13.00;;;;;-147.17;100.00;49773.19;5040031;28;51283;-61
2021/11/03 00:40:16;;;;;;;;;13.50;12.50;;;;;-147.17;100.00;49777.13;5056860;28;51271;-62
2021/11/03 00:42:42;;;;;;;;;13.25;11.25;;;;;-147.17;100.00;49779.09;5070343;28;51175;-62
2021/11/03 00:45:08;;;;;;;;;12.75;12.00;;;;;-147.17;100.00;49775.16;5060346;28;51365;-61
2021/11/03 00:47:33;;;;;;;;;13.25;12.25;;;;;-147.17;100.00;49745.63;5069740;28;51243;-63
2021/11/03 00:50:00;;;;;;;;;14.25;14.25;;;;;-147.17;100.00;49779.09;5063360;28;51159;-60
2021/11/03 00:52:25;;;;;;;;;2.75;2.50;;;;;-147.17;100.00;49743.66;5040493;28;51533;-60
2021/11/03 00:54:51;;;;;;;;;13.50;11.25;;;;;-147.17;100.00;49751.53;5059993;28;51200;-61
2021/11/03 00:57:17;;;;;;;;;11.25;11.25;;;;;-147.17;100.00;49749.56;5065037;28;51031;-62
2021/11/03 00:59:42;;;;;;;;;10.67;10.00;;;;;-147.17;100.00;49786.94;5068252;28;52032;-60
2021/11/03 01:02:08;;;;;;;;;11.00;10.33;;;;;-147.17;100.00;49745.63;5060835;27;51152;-62
2021/11/03 01:04:33;;;;;;;;;10.00;10.00;;;;;-147.17;100.00;49788.91;5062878;28;50936;-61
2021/11/03 01:06:58;;;;;;;;;12.00;10.25;;;;;-147.17;100.00;49741.69;5067697;28;51187;-61
2021/11/03 01:09:25;;;;;;;;;8.50;8.50;;;;;-147.17;100.00;49753.50;5059564;28;52287;-62
2021/11/03 01:11:51;;;;;;;;;11.00;10.75;;;;;-147.17;100.00;49792.84;5065201;28;51055;-60
2021/11/03 01:14:17;;;;;;;;;9.50;9.00;;;;;-147.17;100.00;49753.50;5053255;28;51209;-63
2021/11/03 01:16:43;;;;;;;;;5.67;4.67;;;;;-147.17;100.00;49761.38;5059298;27;51105;-63
2021/11/03 01:19:08;;;;;;;;;8.33;8.00;;;;;-147.17;100.00;49777.13;5061257;28;52148;-64
2021/11/03 01:21:36;;;;;;;;;10.00;9.00;;;;;-147.17;100.00;49731.84;5065724;28;51047;-63
2021/11/03 01:24:01;;;;;;;;;9.00;9.00;;;;;-147.17;100.00;49808.59;5061227;28;51128;-61
2021/11/03 01:26:26;;;;;;;;;9.00;8.75;;;;;-147.17;100.00;49745.63;5071676;28;51186;-62
2021/11/03 01:28:52;;;;;;;;;10.50;9.50;;;;;-147.17;100.00;49710.19;5070056;28;52357;-63
2021/11/03 01:31:18;;;;;;;;;8.75;8.00;;;;;-147.17;100.00;49722.00;5067639;28;51148;-63
2021/11/03 01:33:44;;;;;;;;;11.00;10.00;;;;;-147.17;100.00;49741.69;5071501;28;50934;-63
2021/11/03 01:36:11;;;;;;;;;7.33;6.00;;;;;-147.17;100.00;49769.25;5068557;27;51232;-63
2021/11/03 01:38:36;;;;;;;;;8.00;8.00;;;;;-147.17;100.00;49781.06;5059359;28;51995;-63
2021/11/03 01:41:02;;;;;;;;;8.00;8.00;;;;;-147.17;100.00;49784.97;5067517;28;50986;-63
2021/11/03 01:43:46;;;;;;;;;11.25;9.50;;;;;-147.17;100.00;49800.72;5062728;28;51196;-63
2021/11/03 01:46:18;;;;;;;;;9.75;9.50;;;;;-147.17;100.00;49757.44;5063282;28;51012;-63
2021/11/03 01:48:44;;;;;;;;;10.00;10.00;;;;;-147.17;100.00;49769.25;5065693;28;52534;-63
2021/11/03 01:51:16;;;;;;;;;11.25;10.50;;;;;-147.17;100.00;49757.44;5069717;28;51200;-63
2021/11/03 01:53:42;;;;;;;;;12.25;12.00;;;;;-147.17;100.00;49788.91;5069177;27;51286;-61
2021/11/03 01:56:10;;;;;;;;;10.25;10.00;;;;;-147.17;100.00;49739.72;5067744;28;51433;-62
2021/11/03 01:58:41;;;;;;;;;12.00;11.00;;;;;-147.17;100.00;49761.38;5043308;28;53109;-63
2021/11/03 02:01:07;;;;;;;;;11.00;11.00;;;;;-147.17;100.00;49773.19;5064162;28;50923;-63
2021/11/03 02:03:34;;;;;;;;;21.00;20.00;;;;;-147.17;100.00;49741.69;5074955;28;51226;-63
2021/11/03 02:06:04;;;;;;;;;10.00;10.00;;;;;-147.17;100.00;49765.31;5066889;28;51329;-63
2021/11/03 02:08:32;;;;;;;;;9.00;9.00;;;;;-147.17;100.00;49800.72;5075474;28;51185;-63
2021/11/03 02:10:57;;;;;;;;;10.00;9.00;;;;;-147.17;100.00;49808.59;5068739;28;51080;-62
2021/11/03 02:13:23;;;;;;;;;9.00;7.33;;;;;-147.17;100.00;49802.69;5074793;28;51141;-62
2021/11/03 02:15:49;;;;;;;;;7.33;6.00;;;;;-147.17;100.00;49808.59;5057455;28;51360;-63
2021/11/03 02:18:18;;;;;;;;;11.00;10.00;;;;;-147.17;100.00;49826.31;5055707;28;53629;-61
2021/11/03 02:20:48;;;;;;;;;8.33;6.33;;;;;-147.17;100.00;49816.47;5056269;28;51145;-61
2021/11/03 02:23:19;;;;;;;;;6.67;6.33;;;;;-147.17;100.00;49804.66;5072864;28;51321;-60
2021/11/03 02:25:51;;;;;;;;;11.00;10.00;;;;;-147.17;100.00;49790.88;5073514;28;51007;-63
2021/11/03 02:28:17;;;;;;;;;11.00;11.00;;;;;-147.17;100.00;49767.28;5074830;28;52163;-62
2021/11/03 02:30:43;;;;;;;;;11.33;10.67;;;;;-147.17;100.00;49800.72;5072947;28;51196;-61
2021/11/03 02:33:15;;;;;;;;;9.67;9.00;;;;;-147.17;100.00;49781.06;5068646;28;51068;-61
2021/11/03 02:35:49;;;;;;;;;10.50;10.50;;;;;-147.17;100.00;49771.22;5072230;28;51145;-61
2021/11/03 02:38:30;;;;;;;;;10.00;10.00;;;;;-147.17;100.00;49781.06;5056524;28;54351;-63
2021/11/03 02:41:04;;;;;;;;;10.67;9.67;;;;;-147.17;100.00;49802.69;5073258;28;51151;-63
2021/11/03 02:43:43;;;;;;;;;12.00;9.00;;;;;-147.17;100.00;49800.72;5056604;28;51383;-63
2021/11/03 02:46:11;;;;;;;;;8.33;8.33;;;;;-147.17;100.00;49786.94;5056646;28;50968;-63
2021/11/03 02:48:38;;;;;;;;;5.67;5.33;;;;;-147.17;100.00;49788.91;5072262;27;51787;-62
2021/11/03 02:51:05;;;;;;;;;6.50;6.50;;;;;-147.17;100.00;49802.69;5073787;28;51164;-62
2021/11/03 02:53:36;;;;;;;;;6.33;6.00;;;;;-147.17;100.00;49779.09;5070528;28;51045;-63
2021/11/03 02:56:02;;;;;;;;;8.33;7.33;;;;;-147.17;100.00;49806.63;5076724;28;51016;-62
2021/11/03 02:58:28;;;;;;;;;5.00;5.00;;;;;-147.17;100.00;49804.66;5076519;28;51103;-64
2021/11/03 03:00:55;;;;;;;;;6.33;6.33;;;;;-147.17;100.00;49812.53;5055337;28;51220;-63
2021/11/03 03:03:20;;;;;;;;;6.00;6.00;;;;;-147.17;100.00;49844.03;5074346;28;51002;-63
2021/11/03 03:06:02;;;;;;;;;9.67;7.33;;;;;-147.17;100.00;49816.47;5070148;28;51279;-63
2021/11/03 03:08:27;;;;;;;;;5.67;5.00;;;;;-147.17;100.00;49804.66;5073706;28;51233;-63
2021/11/03 03:10:53;;;;;;;;;6.75;6.75;;;;;-147.17;100.00;49759.41;5070554;27;51059;-63
2021/11/03 03:13:19;;;;;;;;;7.33;7.33;;;;;-147.17;100.00;49775.16;5070719;28;51517;-63
2021/11/03 03:15:44;;;;;;;;;5.67;5.00;;;;;-147.17;100.00;49753.50;5073501;28;51125;-63
2021/11/03 03:18:09;;;;;;;;;9.75;9.00;;;;;-147.17;100.00;49788.91;5073236;28;51126;-61
2021/11/03 03:20:35;;;;;;;;;8.00;6.67;;;;;-147.17;100.00;49788.91;5072376;28;51157;-63
2021/11/03 03:23:00;;;;;;;;;5.33;5.00;;;;;-147.17;100.00;49757.44;5070356;27;51204;-63
2021/11/03 03:25:26;;;;;;;;;7.67;6.67;;;;;-147.17;100.00;49775.16;5066514;28;51140;-63
2021/11/03 03:27:52;;;;;;;;;9.67;8.67;;;;;-147.17;100.00;49777.13;5073580;28;51138;-63
2021/11/03 03:30:17;;;;;;;;;8.00;8.00;;;;;-147.17;100.00;49779.09;5068456;28;50996;-63
2021/11/03 03:32:42;;;;;;;;;7.33;7.00;;;;;-147.17;100.00;49779.09;5055930;28;51519;-62
2021/11/03 03:35:08;;;;;;;;;7.33;7.33;;;;;-147.17;100.00;49804.66;5063007;28;51434;-63
2021/11/03 03:37:33;;;;;;;;;9.00;7.33;;;;;-147.17;100.00;49788.91;5073602;28;52032;-63
2021/11/03 03:39:59;;;;;;;;;5.00;5.00;;;;;-147.17;100.00;49804.66;5073193;27;51167;-61
2021/11/03 03:42:24;;;;;;;;;7.67;6.00;;;;;-147.17;100.00;49796.78;5072994;28;51041;-63
2021/11/03 03:44:50;;;;;;;;;8.67;8.67;;;;;-147.17;100.00;49804.66;5073256;27;50888;-63
2021/11/03 03:47:16;;;;;;;;;7.67;5.00;;;;;-147.17;100.00;49794.81;5073292;28;51055;-63
2021/11/03 03:49:41;;;;;;;;;5.00;5.00;;;;;-147.17;100.00;49812.53;5074592;28;51117;-63
2021/11/03 03:52:07;;;;;;;;;6.33;5.67;;;;;-147.17;100.00;49792.84;5070769;28;51144;-63
2021/11/03 03:54:33;;;;;;;;;6.00;5.67;;;;;-147.17;100.00;49790.88;5074080;28;51094;-63
2021/11/03 03:56:59;;;;;;;;;4.67;4.67;;;;;-147.17;100.00;49784.97;5072527;28;51895;-63
2021/11/03 03:59:24;;;;;;;;;6.00;6.00;;;;;-147.17;100.00;49806.63;5073651;28;51072;-63
2021/11/03 04:01:50;;;;;;;;;5.00;5.00;;;;;-147.17;100.00;49830.25;5072925;28;51117;-63
2021/11/03 04:04:16;;;;;;;;;5.00;4.00;;;;;-147.17;100.00;49830.25;5052199;28;51069;-63
2021/11/03 04:06:42;;;;;;;;;5.00;5.00;;;;;-147.17;100.00;49816.47;5069333;28;52046;-63
2021/11/03 04:09:08;;;;;;;;;8.00;7.00;;;;;-147.17;100.00;49824.34;5071100;27;51089;-63
2021/11/03 04:11:34;;;;;;;;;5.33;4.33;;;;;-147.17;100.00;49804.66;5070701;28;51077;-63
2021/11/03 04:13:59;;;;;;;;;4.00;3.67;;;;;-147.17;100.00;49842.06;5072547;28;51474;-61
2021/11/03 04:16:25;;;;;;;;;5.00;5.00;;;;;-147.17;100.00;49798.75;5072290;28;51884;-63
2021/11/03 04:18:50;;;;;;;;;5.00;4.00;;;;;-147.17;100.00;49804.66;5072664;28;51027;-63
2021/11/03 04:21:16;;;;;;;;;5.00;4.33;;;;;-147.17;100.00;49790.88;5054171;28;51423;-64
2021/11/03 04:23:41;;;;;;;;;7.00;6.67;;;;;-147.17;100.00;49806.63;5069255;28;51301;-63
2021/11/03 04:26:22;;;;;;;;;10.00;10.00;;;;;-147.17;100.00;49786.94;5053893;28;53193;-63
2021/11/03 04:28:48;;;;;;;;;9.00;8.67;;;;;-147.17;100.00;49784.97;5072917;28;51118;-63
2021/11/03 04:31:13;;;;;;;;;11.00;9.67;;;;;-147.17;100.00;49788.91;5072332;28;51212;-63
2021/11/03 04:33:39;;;;;;;;;9.50;9.50;;;;;-147.17;100.00;49792.84;5069743;27;51472;-64
2021/11/03 04:36:05;;;;;;;;;10.67;10.33;;;;;-147.17;100.00;49806.63;5072024;28;51442;-63
2021/11/03 04:38:30;;;;;;;;;10.75;10.75;;;;;-147.17;100.00;49800.72;5073108;28;51217;-63
2021/11/03 04:40:56;;;;;;;;;10.50;10.50;;;;;-147.17;100.00;49781.06;5053914;28;51119;-63
2021/11/03 04:43:21;;;;;;;;;12.25;12.00;;;;;-147.17;100.00;49865.69;5073726;28;51063;-63
2021/11/03 04:45:47;;;;;;;;;13.75;13.75;;;;;-147.17;100.00;49790.88;5053801;28;53450;-63
2021/11/03 04:48:12;;;;;;;;;18.75;16.75;;;;;-147.17;100.00;49759.41;5072330;28;51196;-63
2021/11/03 04:50:37;;;;;;;;;18.75;16.75;;;;;-147.17;100.00;49832.22;5071696;28;51191;-63
2021/11/03 04:53:03;;;;;;;;;17.75;17.00;;;;;-147.17;100.00;49775.16;5073022;28;51138;-63
2021/11/03 04:55:29;;;;;;;;;13.50;12.75;;;;;-147.17;100.00;49826.31;5072526;28;51260;-63
2021/11/03 04:57:54;;;;;;;;;13.00;11.00;;;;;-147.17;100.00;49783.03;5072639;28;51059;-63
2021/11/03 05:00:24;;;;;;;;;17.00;16.25;;;;;-147.17;100.00;49792.84;5053942;28;51090;-63
2021/11/03 05:02:50;;;;;;;;;12.00;11.00;;;;;-147.17;100.00;49792.84;5067795;28;51170;-63
2021/11/03 05:05:16;;;;;;;;;20.50;18.50;;;;;-147.17;100.00;49796.78;5062013;28;52187;-65
2021/11/03 05:07:41;;;;;;;;;18.75;17.50;;;;;-147.17;100.00;49820.41;5072377;28;50913;-64
2021/11/03 05:10:07;;;;;;;;;16.50;16.50;;;;;-147.17;100.00;49788.91;5069576;27;51376;-63
2021/11/03 05:12:33;;;;;;;;;20.00;17.25;;;;;-147.17;100.00;49790.88;5069508;28;51294;-62
2021/11/03 05:14:58;;;;;;;;;17.75;16.25;;;;;-147.17;100.00;49806.63;5072344;28;51345;-63
2021/11/03 05:17:24;;;;;;;;;18.00;18.00;;;;;-147.17;100.00;49788.91;5071520;28;51102;-62
2021/11/03 05:19:49;;;;;;;;;21.00;20.00;;;;;-147.17;100.00;49773.19;5071440;28;51649;-64
2021/11/03 05:22:16;;;;;;;;;20.25;20.00;;;;;-147.17;100.00;49804.66;5068756;28;51056;-62
2021/11/03 05:24:44;;;;;;;;;19.50;18.00;;;;;-147.17;100.00;49812.53;5070882;28;52184;-63
2021/11/03 05:27:12;;;;;;;;;23.00;21.50;;;;;-147.17;100.00;49792.84;5071918;28;50944;-63
2021/11/03 05:29:38;;;;;;;;;22.75;22.25;;;;;-147.17;100.00;49790.88;5072576;28;51047;-64
2021/11/03 05:32:04;;;;;;;;;23.00;20.00;;;;;-147.17;100.00;49773.19;5073820;27;51115;-64
2021/11/03 05:34:29;;;;;;;;;18.75;17.50;;;;;-147.17;100.00;49784.97;5072369;28;51889;-63
2021/11/03 05:36:55;;;;;;;;;17.00;16.25;;;;;-147.17;100.00;49800.72;5076732;28;51043;-63
2021/11/03 05:39:21;;;;;;;;;23.00;20.00;;;;;-147.17;100.00;49796.78;5057959;28;51655;-63
2021/11/03 05:41:46;;;;;;;;;18.00;17.50;;;;;-147.17;100.00;49784.97;5075077;28;51545;-63
2021/11/03 05:44:15;;;;;;;;;20.75;20.75;;;;;-147.17;100.00;49796.78;5074736;27;51282;-64
2021/11/03 05:46:47;;;;;;;;;19.00;17.00;;;;;-147.17;100.00;49788.91;5075915;28;51045;-64
2021/11/03 05:49:14;;;;;;;;;13.75;13.00;;;;;-147.17;100.00;49769.25;5075668;28;51012;-62
2021/11/03 05:51:41;;;;;;;;;17.25;15.50;;;;;-147.17;100.00;49777.13;5074826;28;51278;-63
2021/11/03 05:54:07;;;;;;;;;18.75;17.75;;;;;-147.17;100.00;49792.84;5074693;28;51135;-64
2021/11/03 05:56:35;;;;;;;;;15.00;14.50;;;;;-147.17;100.00;49767.28;5075263;28;51061;-63
2021/11/03 05:59:01;;;;;;;;;16.75;15.00;;;;;-147.17;100.00;49781.06;5071112;28;51364;-63
2021/11/03 06:01:27;;;;;;;;;12.75;12.75;;;;;-147.17;100.00;49792.84;5071668;28;51355;-63
2021/11/03 06:03:53;;;;;;;;;17.25;15.25;;;;;-147.17;100.00;49796.78;5053018;28;52120;-63
2021/11/03 06:06:22;;;;;;;;;16.75;16.75;;;;;-147.17;100.00;49777.13;5067283;28;50927;-63
2021/11/03 06:08:52;;;;;;;;;17.00;16.50;;;;;-147.17;100.00;49812.53;5055231;28;51094;-63
2021/11/03 06:11:19;;;;;;;;;18.25;17.75;;;;;-147.17;100.00;49786.94;5075418;28;51071;-63
2021/11/03 06:13:46;;;;;;;;;17.50;17.25;;;;;-147.17;100.00;49765.31;5072968;28;52319;-63
2021/11/03 06:16:12;;;;;;;;;20.50;19.50;;;;;-147.17;100.00;49757.44;5075481;28;51006;-63
2021/11/03 06:18:37;;;;;;;;;16.50;16.50;;;;;-147.17;100.00;49798.75;5056724;28;51239;-63
2021/11/03 06:21:03;;;;;;;;;20.00;17.25;;;;;-147.17;100.00;49779.09;5048735;28;51185;-63
2021/11/03 06:23:30;;;;;;;;;19.75;19.00;;;;;-147.17;100.00;49771.22;5075065;28;52139;-64
2021/11/03 06:25:55;;;;;;;;;25.25;21.75;;;;;-147.17;100.00;49786.94;5072920;28;51300;-63
2021/11/03 06:28:21;;;;;;;;;22.50;21.25;;;;;-147.17;100.00;49757.44;5070659;28;51184;-64
2021/11/03 06:30:47;;;;;;;;;18.25;18.00;;;;;-147.17;100.00;49798.75;5073033;28;51192;-64
2021/11/03 06:33:15;;;;;;;;;23.00;22.00;;;;;-147.17;100.00;49802.69;5073823;28;51138;-64
2021/11/03 06:35:45;;;;;;;;;21.50;21.50;;;;;-147.17;100.00;49775.16;5053379;28;51174;-64
2021/11/03 06:38:14;;;;;;;;;22.25;21.50;;;;;-147.17;100.00;49804.66;5070027;28;51010;-64
2021/11/03 06:40:41;;;;;;;;;22.75;21.00;;;;;-147.17;100.00;49769.25;5073741;27;51264;-64
2021/11/03 06:43:08;;;;;;;;;23.50;21.00;;;;;-147.17;100.00;49739.72;5072778;28;51217;-64
2021/11/03 06:45:33;;;;;;;;;26.50;24.50;;;;;-147.17;100.00;49775.16;5074083;28;51144;-63
2021/11/03 06:47:59;;;;;;;;;32.50;28.25;;;;;-147.17;100.00;49781.06;5073874;28;51607;-64
2021/11/03 06:50:31;;;;;;;;;33.75;31.50;;;;;-147.17;100.00;49786.94;5073091;28;50978;-64
2021/11/03 06:52:58;;;;;;;;;29.25;28.25;;;;;-147.17;100.00;49769.25;5068566;27;51083;-63
2021/11/03 06:55:24;;;;;;;;;25.50;24.50;;;;;-147.17;100.00;49775.16;5068954;28;51149;-63
2021/11/03 06:57:50;;;;;;;;;22.75;22.25;;;;;-147.17;100.00;49759.41;5072961;27;51232;-63
2021/11/03 07:00:20;;;;;;;;;27.50;23.00;;;;;-147.17;100.00;49761.38;5071850;28;51401;-63
2021/11/03 07:02:46;;;;;;;;;26.00;24.25;;;;;-147.17;100.00;49761.38;5054863;28;53901;-63
2021/11/03 07:05:11;;;;;;;;;27.50;24.00;;;;;-147.17;100.00;49784.97;5073046;28;51039;-64
2021/11/03 07:07:37;;;;;;;;;23.00;22.00;;;;;-147.17;100.00;49792.84;5073797;28;51092;-64
2021/11/03 07:10:04;;;;;;;;;23.00;22.00;;;;;-147.17;100.00;49784.97;5072762;28;51121;-62
2021/11/03 07:12:29;;;;;;;;;26.00;23.50;;;;;-147.17;100.00;49763.34;5066291;28;51839;-63
2021/11/03 07:14:55;;;;;;;;;25.50;23.25;;;;;-147.17;100.00;49777.13;5074230;28;51186;-60
2021/11/03 07:17:20;;;;;;;;;27.75;23.50;;;;;-147.17;100.00;49790.88;5073966;28;51138;-61
2021/11/03 07:19:46;;;;;;;;;18.75;18.25;;;;;-147.17;100.00;49773.19;5074523;28;51313;-61
2021/11/03 07:22:11;;;;;;;;;25.50;24.75;;;;;-147.17;100.00;49771.22;5073710;28;53138;-61
2021/11/03 07:24:37;;;;;;;;;24.25;23.00;;;;;-147.17;100.00;49798.75;5053358;28;51137;-61
2021/11/03 07:27:03;;;;;;;;;22.00;20.75;;;;;-147.17;100.00;49763.34;5073757;28;50907;-62
2021/11/03 07:29:28;;;;;;;;;24.25;23.25;;;;;-147.17;100.00;49751.53;5074158;28;50903;-61
2021/11/03 07:31:54;;;;;;;;;22.00;20.00;;;;;-147.17;100.00;49806.63;5059904;28;53036;-61
2021/11/03 07:34:19;;;;;;;;;21.00;20.00;;;;;-147.17;100.00;49788.91;5073726;28;50974;-61
2021/11/03 07:36:45;;;;;;;;;15.00;13.75;;;;;-147.17;100.00;49796.78;5074012;28;50999;-61
2021/11/03 07:39:12;;;;;;;;;15.50;14.75;;;;;-147.17;100.00;49802.69;5055211;28;51136;-61
2021/11/03 07:41:38;;;;;;;;;16.00;15.00;;;;;-147.17;100.00;49800.72;5059881;28;51882;-61
2021/11/03 07:44:04;;;;;;;;;17.00;15.50;;;;;-147.17;100.00;49802.69;5073378;28;51379;-61
2021/11/03 07:46:30;;;;;;;;;20.25;18.50;;;;;-147.17;100.00;49804.66;5054336;28;51187;-61
2021/11/03 07:48:56;;;;;;;;;21.75;19.75;;;;;-147.17;100.00;49757.44;5072507;27;51028;-61
2021/11/03 07:51:22;;;;;;;;;21.75;20.00;;;;;-147.17;100.00;49800.72;5060480;28;52463;-62
2021/11/03 07:53:49;;;;;;;;;22.00;20.75;;;;;-147.17;100.00;49792.84;5071387;28;51121;-61
2021/11/03 07:56:21;;;;;;;;;20.75;19.75;;;;;-147.17;100.00;49796.78;5073553;28;51087;-61
2021/11/03 07:58:50;;;;;;;;;26.00;24.75;;;;;-147.17;100.00;49788.91;5072961;28;51005;-62
2021/11/03 08:01:15;;;;;;;;;21.00;20.00;;;;;-147.17;100.00;49818.44;5070145;28;51960;-63
2021/11/03 08:03:41;;;;;;;;;20.00;19.00;;;;;-147.17;100.00;49820.41;5072941;28;51019;-61
2021/11/03 08:06:08;;;;;;;;;19.00;18.50;;;;;-147.17;100.00;49802.69;5072500;28;51138;-62
2021/11/03 08:08:36;;;;;;;;;18.50;18.50;;;;;-147.17;100.00;49812.53;5070580;27;51197;-63
2021/11/03 08:11:03;;;;;;;;;21.00;19.75;;;;;-147.17;100.00;49796.78;5073283;28;51431;-62
2021/11/03 08:13:31;;;;;;;;;18.25;17.00;;;;;-147.17;100.00;49824.34;5072112;28;51101;-62
2021/11/03 08:16:02;;;;;;;;;20.75;20.00;;;;;-147.17;100.00;49802.69;5072501;28;51005;-62
2021/11/03 08:18:31;;;;;;;;;22.50;20.50;;;;;-147.17;100.00;49792.84;5061671;28;50903;-63
2021/11/03 08:20:57;;;;;;;;;19.25;17.50;;;;;-147.17;100.00;49800.72;5053503;27;52670;-62
2021/11/03 08:23:22;;;;;;;;;24.00;23.50;;;;;-147.17;100.00;49788.91;5073119;28;51078;-62
2021/11/03 08:25:48;;;;;;;;;19.75;18.75;;;;;-147.17;100.00;49812.53;5072927;28;51169;-62
2021/11/03 08:28:14;;;;;;;;;21.25;19.25;;;;;-147.17;100.00;49794.81;5072992;28;51324;-64
2021/11/03 08:30:42;;;;;;;;;24.75;22.00;;;;;-147.17;100.00;49765.31;5072593;28;51231;-79
2021/11/03 08:33:13;;;;;;;;;19.25;18.25;;;;;-147.17;100.00;49761.38;5074277;28;51074;-78
2021/11/03 08:35:41;;;;;;;;;16.75;15.50;;;;;-147.17;100.00;49786.94;5076084;28;50998;-79
2021/11/03 08:38:11;;;;;;;;;19.75;17.75;;;;;-147.17;100.00;49777.13;5059535;28;51311;-80
2021/11/03 08:40:37;;;;;;;;;18.00;17.50;;;;;-147.17;100.00;49788.91;5078734;28;50978;-78
2021/11/03 08:43:05;;;;;;;;;18.50;18.00;;;;;-147.17;100.00;49781.06;5080458;28;51212;-78
2021/11/03 08:45:32;;;;;;;;;18.00;18.00;;;;;-147.17;100.00;49775.16;5061806;28;51247;-79
2021/11/03 08:47:59;;;;;;;;;26.25;23.75;;;;;-147.17;100.00;49796.78;5063823;28;50937;-77
2021/11/03 08:50:28;;;;;;;;;19.50;19.50;;;;;-147.17;100.00;49792.84;5081864;28;50991;-79
2021/11/03 08:52:54;;;;;;;;;21.00;20.50;;;;;-147.17;100.00;49765.31;5062815;28;51162;-80
2021/11/03 08:55:21;;;;;;;;;23.25;20.75;;;;;-147.17;100.00;49765.31;5043968;28;51131;-80
2021/11/03 08:57:47;;;;;;;;;21.00;20.50;;;;;-147.17;100.00;49792.84;5061330;28;51251;-79
2021/11/03 09:00:25;;;;;;;;;26.00;21.50;;;;;-147.17;100.00;49765.31;5074700;28;51009;-77
2021/11/03 09:02:52;;;;;;;;;24.00;21.00;;;;;-147.17;100.00;49796.78;5069059;28;51159;-79
2021/11/03 09:05:18;;;;;;;;;23.50;23.50;;;;;-147.17;100.00;49757.44;5073813;28;51056;-78
2021/11/03 09:07:43;;;;;;;;;26.50;24.25;;;;;-147.17;100.00;49800.72;5074278;28;51084;-79
2021/11/03 09:10:13;;;;;;;;;28.75;25.50;;;;;-147.17;100.00;49769.25;5075979;28;52302;-77
2021/11/03 09:12:39;;;;;;;;;24.25;23.75;;;;;-147.17;100.00;49800.72;5074139;28;50908;-79
2021/11/03 09:15:07;;;;;;;;;26.50;24.25;;;;;-147.17;100.00;49765.31;5066185;28;50845;-77
2021/11/03 09:17:32;;;;;;;;;25.25;24.00;;;;;-147.17;100.00;49786.94;5068536;28;51291;-77
2021/11/03 09:19:58;;;;;;;;;23.75;23.00;;;;;-147.17;100.00;49790.88;5070127;28;52367;-77
2021/11/03 09:22:24;;;;;;;;;26.75;25.75;;;;;-147.17;100.00;49798.75;5071767;27;51275;-78
2021/11/03 09:24:50;;;;;;;;;30.00;25.25;;;;;-147.17;100.00;49792.84;5072706;28;51037;-77
2021/11/03 09:27:16;;;;;;;;;26.50;25.25;;;;;-147.17;100.00;49842.06;5072516;28;50928;-78
2021/11/03 09:29:46;;;;;;;;;24.75;21.50;;;;;-147.17;100.00;49800.72;5072688;28;52331;-78
2021/11/03 09:32:14;;;;;;;;;18.75;18.75;;;;;-147.17;100.00;49824.34;5068283;27;51144;-79
2021/11/03 09:34:44;;;;;;;;;21.25;19.75;;;;;-147.17;100.00;49822.38;5072000;28;53018;-77
2021/11/03 09:37:12;;;;;;;;;22.00;20.00;;;;;-147.17;100.00;49820.41;5072342;28;51309;-77
2021/11/03 09:39:38;;;;;;;;;20.00;20.00;;;;;-147.17;100.00;49816.47;5072317;28;51081;-78
2021/11/03 09:42:04;;;;;;;;;18.50;18.00;;;;;-147.17;100.00;49820.41;5071167;28;51030;-76
2021/11/03 09:44:33;;;;;;;;;17.75;17.75;;;;;-147.17;100.00;49824.34;5038039;28;51022;-78
2021/11/03 09:47:17;;;;;;;;;22.00;20.75;;;;;-147.17;100.00;49784.97;5072404;28;50914;-78
2021/11/03 09:49:48;;;;;;;;;22.50;21.50;;;;;-147.17;100.00;49838.13;5071982;28;51972;-77
2021/11/03 09:52:25;;;;;;;;;20.00;18.50;;;;;-147.17;100.00;49810.56;5071832;28;51073;-79
2021/11/03 09:54:58;;;;;;;;;22.50;20.25;;;;;-147.17;100.00;49808.59;5054045;28;51003;-77
2021/11/03 09:57:40;;;;;;;;;18.25;18.00;;;;;-147.17;100.00;49786.94;5054411;28;51229;-77
2021/11/03 10:00:39;;;;;;;;;20.00;19.50;;;;;-147.17;100.00;49836.16;5071821;28;51812;-78
2021/11/03 10:03:22;;;;;;;;;20.75;20.50;;;;;-147.17;100.00;49842.06;5072735;28;51141;-77
2021/11/03 10:05:53;;;;;;;;;22.50;21.25;;;;;-147.17;100.00;49824.34;5073680;28;51227;-78
2021/11/03 10:08:22;;;;;;;;;22.50;20.00;;;;;-147.17;100.00;49800.72;5064293;28;51189;-78
2021/11/03 10:10:53;;;;;;;;;17.67;17.00;;;;;-147.17;100.00;49794.81;5079360;28;52030;-79
2021/11/03 10:13:39;;;;;;;;;17.75;16.75;;;;;-147.17;100.00;49800.72;5073292;28;51138;-78
2021/11/03 10:16:10;;;;;;;;;17.75;17.75;;;;;-147.17;100.00;49788.91;5079726;28;51078;-77
2021/11/03 10:19:08;;;;;;;;;18.67;17.33;;;;;-147.17;100.00;49828.28;5082367;28;51272;-78
2021/11/03 10:21:36;;;;;;;;;17.67;17.33;;;;;-147.17;100.00;49812.53;5077001;28;50928;-78
2021/11/03 10:24:14;;;;;;;;;43.75;37.25;;;;;-147.17;100.00;49777.13;5079497;28;50910;-78
2021/11/03 10:27:09;;;;;;;;;17.50;16.75;;;;;-147.17;100.00;49783.03;5065642;28;51086;-77
2021/11/03 10:29:54;;;;;;;;;20.50;19.50;;;;;-147.17;100.00;49769.25;5077603;28;51151;-79
2021/11/03 10:32:40;;;;;;;;;19.75;19.00;;;;;-147.17;100.00;49773.19;5075956;28;51204;-78
2021/11/03 10:35:35;;;;;;;;;18.50;18.00;;;;;-147.17;100.00;49777.13;5073985;28;51292;-80
2021/11/03 10:38:09;;;;;;;;;17.00;17.00;;;;;-147.17;100.00;49792.84;5068205;28;51529;-80
2021/11/03 10:40:43;;;;;;;;;18.00;16.00;;;;;-147.17;100.00;49802.69;5073879;28;50997;-79
2021/11/03 10:43:23;;;;;;;;;15.00;15.00;;;;;-147.17;100.00;49771.22;5074943;28;52103;-79
2021/11/03 10:45:57;;;;;;;;;18.33;18.00;;;;;-147.17;100.00;49765.31;5075451;28;51020;-77
2021/11/03 10:48:27;;;;;;;;;18.00;17.67;;;;;-147.17;100.00;49773.19;5056229;28;51142;-79
2021/11/03 10:50:55;;;;;;;;;17.00;17.00;;;;;-147.17;100.00;49741.69;5075264;28;51320;-80
2021/11/03 10:53:29;;;;;;;;;19.00;17.00;;;;;-147.17;100.00;49773.19;5074540;28;51786;-78
2021/11/03 10:56:07;;;;;;;;;17.00;17.00;;;;;-147.17;100.00;49739.72;5055963;28;51014;-78
2021/11/03 10:58:49;;;;;;;;;18.75;17.25;;;;;-147.17;100.00;49763.34;5056306;28;51018;-78
2021/11/03 11:01:23;;;;;;;;;19.00;15.00;;;;;-147.17;100.00;49784.97;5065856;28;51160;-77